Time,TemperatureF,DewpointF,PressureIn,WindDirection,WindDirectionDegrees,WindSpeedMPH,WindSpeedGustMPH,Humidity,HourlyPrecipIn,Conditions,Clouds,dailyrainin,SoftwareType,DateUTC
2013-04-19 00:01:00,73.7,56.0,29.60,SE,136,11.0,11.0,54,0.00,,,0.00,Wunderground v.1.15,2013-04-19 04:01:00,
2013-04-19 00:02:00,73.8,56.1,29.60,SSW,205,4.0,11.0,54,0.00,,,0.00,Wunderground v.1.15,2013-04-19 04:02:00,
2013-04-19 00:03:00,73.8,56.1,29.60,SSW,202,5.0,11.0,54,0.00,,,0.00,Wunderground v.1.15,2013-04-19 04:03:00,
2013-04-19 00:05:00,73.8,56.6,29.59,South,186,2.0,11.0,55,0.00,,,0.00,Wunderground v.1.15,2013-04-19 04:05:00,
2013-04-19 00:06:00,73.8,56.6,29.59,South,183,6.0,11.0,55,0.00,,,0.00,Wunderground v.1.15,2013-04-19 04:06:00,
2013-04-19 00:12:00,73.6,56.4,29.59,SSW,205,3.0,5.0,55,0.00,,,0.00,Wunderground v.1.15,2013-04-19 04:12:00,
2013-04-19 00:18:00,73.6,56.4,29.59,SSW,192,2.0,14.0,55,0.00,,,0.00,Wunderground v.1.15,2013-04-19 04:18:00,
2013-04-19 00:23:00,73.6,56.4,29.59,SSW,213,5.0,9.0,55,0.00,,,0.00,Wunderground v.1.15,2013-04-19 04:23:00,
2013-04-19 00:28:00,73.5,56.3,29.59,SSW,194,3.0,13.0,55,0.00,,,0.00,Wunderground v.1.15,2013-04-19 04:28:00,
2013-04-19 00:33:00,73.5,56.8,29.58,SSW,203,9.0,9.0,56,0.00,,,0.00,Wunderground v.1.15,2013-04-19 04:33:00,
2013-04-19 00:38:00,73.5,56.8,29.57,South,190,8.0,12.0,56,0.00,,,0.00,Wunderground v.1.15,2013-04-19 04:38:00,
2013-04-19 00:43:00,73.5,56.8,29.57,SSW,192,9.0,9.0,56,0.00,,,0.00,Wunderground v.1.15,2013-04-19 04:43:00,
2013-04-19 00:49:00,73.5,56.8,29.56,SSW,213,10.0,10.0,56,0.00,,,0.00,Wunderground v.1.15,2013-04-19 04:49:00,
2013-04-19 00:54:00,73.4,56.7,29.55,SSW,207,9.0,9.0,56,0.00,,,0.00,Wunderground v.1.15,2013-04-19 04:54:00,
2013-04-19 01:00:00,73.3,56.7,29.55,South,187,4.0,6.0,56,0.00,,,0.00,Wunderground v.1.15,2013-04-19 05:00:00,
2013-04-19 01:06:00,73.4,57.2,29.54,South,189,2.0,11.0,57,0.00,,,0.00,Wunderground v.1.15,2013-04-19 05:06:00,
2013-04-19 01:11:00,73.4,57.2,29.54,SSW,209,8.0,8.0,57,0.00,,,0.00,Wunderground v.1.15,2013-04-19 05:11:00,
2013-04-19 01:17:00,73.3,57.1,29.54,SSW,198,4.0,8.0,57,0.00,,,0.00,Wunderground v.1.15,2013-04-19 05:17:00,
2013-04-19 01:23:00,73.1,57.0,29.54,SSW,210,4.0,10.0,57,0.00,,,0.00,Wunderground v.1.15,2013-04-19 05:23:00,
2013-04-19 01:28:00,73.0,57.3,29.53,SSW,202,8.0,10.0,58,0.00,,,0.00,Wunderground v.1.15,2013-04-19 05:28:00,
2013-04-19 01:34:00,72.9,57.3,29.53,SSW,209,7.0,8.0,58,0.00,,,0.00,Wunderground v.1.15,2013-04-19 05:34:00,
2013-04-19 01:39:00,72.9,57.3,29.53,SSE,148,2.0,9.0,58,0.00,,,0.00,Wunderground v.1.15,2013-04-19 05:39:00,
2013-04-19 01:45:00,73.0,57.8,29.53,South,184,3.0,12.0,59,0.00,,,0.00,Wunderground v.1.15,2013-04-19 05:45:00,
2013-04-19 01:51:00,73.0,57.8,29.52,SSW,193,9.0,9.0,59,0.00,,,0.00,Wunderground v.1.15,2013-04-19 05:51:00,
2013-04-19 01:56:00,72.9,57.7,29.52,SSW,198,6.0,9.0,59,0.00,,,0.00,Wunderground v.1.15,2013-04-19 05:56:00,
2013-04-19 02:01:00,72.9,58.2,29.52,South,188,3.0,6.0,60,0.00,,,0.00,Wunderground v.1.15,2013-04-19 06:01:00,
2013-04-19 02:06:00,72.8,58.6,29.52,SSW,201,4.0,11.0,61,0.00,,,0.00,Wunderground v.1.15,2013-04-19 06:06:00,
2013-04-19 02:11:00,72.4,58.6,29.51,South,180,3.0,15.0,62,0.00,,,0.00,Wunderground v.1.15,2013-04-19 06:11:00,
2013-04-19 02:16:00,72.2,58.5,29.51,SW,214,6.0,15.0,62,0.00,,,0.00,Wunderground v.1.15,2013-04-19 06:16:00,
2013-04-19 02:22:00,72.1,58.4,29.51,South,191,5.0,9.0,62,0.00,,,0.00,Wunderground v.1.15,2013-04-19 06:22:00,
2013-04-19 02:27:00,72.2,58.5,29.51,SSW,200,2.0,10.0,62,0.00,,,0.00,Wunderground v.1.15,2013-04-19 06:27:00,
2013-04-19 02:32:00,72.0,59.2,29.51,SSW,196,9.0,20.0,64,0.00,,,0.00,Wunderground v.1.15,2013-04-19 06:32:00,
2013-04-19 02:37:00,71.5,59.1,29.50,South,187,3.0,20.0,65,0.00,,,0.00,Wunderground v.1.15,2013-04-19 06:37:00,
2013-04-19 02:42:00,71.1,59.2,29.49,South,180,5.0,6.0,66,0.00,,,0.00,Wunderground v.1.15,2013-04-19 06:42:00,
2013-04-19 02:47:00,71.0,59.5,29.50,SSW,213,5.0,13.0,67,0.00,,,0.00,Wunderground v.1.15,2013-04-19 06:47:00,
2013-04-19 02:52:00,70.6,59.9,29.50,SSW,200,6.0,7.0,69,0.00,,,0.00,Wunderground v.1.15,2013-04-19 06:52:00,
2013-04-19 02:57:00,69.8,60.8,29.49,SSW,198,3.0,7.0,73,0.00,,,0.01,Wunderground v.1.15,2013-04-19 06:57:00,
2013-04-19 03:02:00,68.8,60.2,29.49,SSW,200,6.0,12.0,74,0.00,,,0.01,Wunderground v.1.15,2013-04-19 07:02:00,
2013-04-19 03:07:00,68.3,60.4,29.49,South,190,2.0,12.0,76,0.00,,,0.01,Wunderground v.1.15,2013-04-19 07:07:00,
2013-04-19 03:12:00,67.9,60.4,29.49,SSW,202,8.0,11.0,77,0.05,,,0.02,Wunderground v.1.15,2013-04-19 07:12:00,
2013-04-19 03:17:00,67.4,60.7,29.49,South,184,8.0,11.0,79,0.05,,,0.02,Wunderground v.1.15,2013-04-19 07:17:00,
2013-04-19 03:22:00,67.3,60.9,29.49,SW,221,12.0,12.0,80,0.04,,,0.02,Wunderground v.1.15,2013-04-19 07:22:00,
2013-04-19 03:27:00,66.8,60.8,29.48,SSW,192,5.0,16.0,81,0.00,,,0.02,Wunderground v.1.15,2013-04-19 07:27:00,
2013-04-19 03:32:00,66.3,61.0,29.48,SW,221,5.0,7.0,83,0.00,,,0.03,Wunderground v.1.15,2013-04-19 07:32:00,
2013-04-19 03:37:00,65.7,61.1,29.47,SW,225,4.0,9.0,85,0.19,,,0.04,Wunderground v.1.15,2013-04-19 07:37:00,
2013-04-19 03:42:00,65.2,60.9,29.47,South,184,4.0,7.0,86,0.35,,,0.06,Wunderground v.1.15,2013-04-19 07:42:00,
2013-04-19 03:47:00,64.7,60.7,29.47,SSE,157,9.0,11.0,87,0.09,,,0.06,Wunderground v.1.15,2013-04-19 07:47:00,
2013-04-19 03:52:00,64.5,60.9,29.46,South,186,3.0,10.0,88,0.23,,,0.08,Wunderground v.1.15,2013-04-19 07:52:00,
2013-04-19 03:58:00,64.2,60.9,29.45,SSW,200,4.0,10.0,89,0.13,,,0.09,Wunderground v.1.15,2013-04-19 07:58:00,
2013-04-19 04:03:00,64.0,61.0,29.44,SW,217,2.0,9.0,90,0.06,,,0.09,Wunderground v.1.15,2013-04-19 08:03:00,
2013-04-19 04:08:00,63.9,60.9,29.44,South,177,5.0,14.0,90,0.06,,,0.10,Wunderground v.1.15,2013-04-19 08:08:00,
2013-04-19 04:13:00,63.9,60.9,29.44,SW,219,5.0,10.0,90,0.06,,,0.10,Wunderground v.1.15,2013-04-19 08:13:00,
2013-04-19 04:18:00,64.0,61.0,29.44,South,181,3.0,11.0,90,0.04,,,0.10,Wunderground v.1.15,2013-04-19 08:18:00,
2013-04-19 04:23:00,63.9,61.2,29.44,SW,215,3.0,9.0,91,0.04,,,0.11,Wunderground v.1.15,2013-04-19 08:23:00,
2013-04-19 04:28:00,63.9,61.2,29.43,SSW,207,3.0,10.0,91,0.09,,,0.12,Wunderground v.1.15,2013-04-19 08:28:00,
2013-04-19 04:33:00,63.8,61.1,29.43,South,184,4.0,8.0,91,0.08,,,0.12,Wunderground v.1.15,2013-04-19 08:33:00,
2013-04-19 04:39:00,63.7,61.3,29.49,West,268,24.0,24.0,92,0.73,,,0.16,Wunderground v.1.15,2013-04-19 08:39:00,
2013-04-19 04:44:00,59.8,55.0,29.48,West,262,6.0,18.0,84,0.85,,,0.44,Wunderground v.1.15,2013-04-19 08:44:00,
2013-04-19 04:49:00,56.6,52.8,29.47,NW,309,1.0,18.0,87,0.23,,,0.47,Wunderground v.1.15,2013-04-19 08:49:00,
2013-04-19 04:54:00,54.8,51.6,29.48,WNW,300,4.0,7.0,89,0.23,,,0.49,Wunderground v.1.15,2013-04-19 08:54:00,
2013-04-19 04:59:00,53.8,51.2,29.49,West,265,2.0,8.0,91,0.23,,,0.52,Wunderground v.1.15,2013-04-19 08:59:00,
2013-04-19 05:04:00,53.2,50.9,29.48,West,263,3.0,10.0,92,0.25,,,0.54,Wunderground v.1.15,2013-04-19 09:04:00,
2013-04-19 05:09:00,52.9,50.9,29.49,West,275,6.0,10.0,93,0.18,,,0.56,Wunderground v.1.15,2013-04-19 09:09:00,
2013-04-19 05:14:00,52.8,50.8,29.50,West,262,3.0,6.0,93,0.44,,,0.59,Wunderground v.1.15,2013-04-19 09:14:00,
2013-04-19 05:19:00,52.1,50.1,29.51,West,275,12.0,15.0,93,0.29,,,0.61,Wunderground v.1.15,2013-04-19 09:19:00,
2013-04-19 05:24:00,50.9,48.9,29.51,SW,233,11.0,14.0,93,0.24,,,0.63,Wunderground v.1.15,2013-04-19 09:24:00,
2013-04-19 05:29:00,50.0,48.1,29.52,West,272,9.0,17.0,93,0.27,,,0.65,Wunderground v.1.15,2013-04-19 09:29:00,
2013-04-19 05:34:00,48.4,46.2,29.52,West,259,7.0,19.0,92,0.19,,,0.66,Wunderground v.1.15,2013-04-19 09:34:00,
2013-04-19 05:39:00,47.1,44.6,29.51,WSW,257,11.0,19.0,91,0.12,,,0.67,Wunderground v.1.15,2013-04-19 09:39:00,
2013-04-19 05:45:00,46.5,44.3,29.53,WNW,283,7.0,15.0,92,0.07,,,0.68,Wunderground v.1.15,2013-04-19 09:45:00,
2013-04-19 05:50:00,46.0,43.8,29.54,West,274,6.0,8.0,92,0.14,,,0.69,Wunderground v.1.15,2013-04-19 09:50:00,
2013-04-19 05:55:00,45.7,43.5,29.55,NW,315,5.0,16.0,92,0.25,,,0.72,Wunderground v.1.15,2013-04-19 09:55:00,
2013-04-19 06:00:00,45.4,43.5,29.54,West,259,3.0,7.0,93,0.20,,,0.73,Wunderground v.1.15,2013-04-19 10:00:00,
2013-04-19 06:05:00,45.2,43.3,29.54,NW,322,2.0,10.0,93,0.22,,,0.75,Wunderground v.1.15,2013-04-19 10:05:00,
2013-04-19 06:10:00,45.0,43.1,29.55,WSW,244,7.0,10.0,93,0.14,,,0.76,Wunderground v.1.15,2013-04-19 10:10:00,
2013-04-19 06:15:00,44.8,42.9,29.55,West,270,1.0,14.0,93,0.12,,,0.77,Wunderground v.1.15,2013-04-19 10:15:00,
2013-04-19 06:20:00,44.6,43.0,29.56,WNW,288,4.0,14.0,94,0.09,,,0.77,Wunderground v.1.15,2013-04-19 10:20:00,
2013-04-19 06:25:00,44.6,43.0,29.57,WNW,282,2.0,14.0,94,0.05,,,0.77,Wunderground v.1.15,2013-04-19 10:25:00,
2013-04-19 06:31:00,44.5,42.9,29.57,WSW,246,9.0,14.0,94,0.00,,,0.77,Wunderground v.1.15,2013-04-19 10:31:00,
2013-04-19 06:36:00,44.4,42.8,29.57,WNW,286,6.0,14.0,94,0.00,,,0.77,Wunderground v.1.15,2013-04-19 10:36:00,
2013-04-19 06:41:00,44.2,42.6,29.58,West,275,3.0,13.0,94,0.00,,,0.77,Wunderground v.1.15,2013-04-19 10:41:00,
2013-04-19 06:46:00,44.0,42.4,29.58,WSW,249,5.0,13.0,94,0.00,,,0.77,Wunderground v.1.15,2013-04-19 10:46:00,
2013-04-19 06:51:00,43.9,42.3,29.59,NW,306,2.0,10.0,94,0.00,,,0.77,Wunderground v.1.15,2013-04-19 10:51:00,
2013-04-19 06:56:00,43.8,42.2,29.58,West,262,6.0,14.0,94,0.00,,,0.77,Wunderground v.1.15,2013-04-19 10:56:00,
2013-04-19 07:01:00,43.8,42.2,29.59,West,275,1.0,6.0,94,0.00,,,0.78,Wunderground v.1.15,2013-04-19 11:01:00,
2013-04-19 07:06:00,43.8,42.2,29.61,NW,315,3.0,12.0,94,0.00,,,0.78,Wunderground v.1.15,2013-04-19 11:06:00,
2013-04-19 07:11:00,43.8,42.2,29.60,WNW,299,2.0,9.0,94,0.00,,,0.78,Wunderground v.1.15,2013-04-19 11:11:00,
2013-04-19 07:16:00,43.8,42.2,29.62,WNW,300,3.0,11.0,94,0.00,,,0.78,Wunderground v.1.15,2013-04-19 11:16:00,
2013-04-19 07:21:00,43.8,42.5,29.62,West,267,4.0,6.0,95,0.00,,,0.78,Wunderground v.1.15,2013-04-19 11:21:00,
2013-04-19 07:26:00,43.8,42.5,29.62,West,262,6.0,16.0,95,0.00,,,0.78,Wunderground v.1.15,2013-04-19 11:26:00,
2013-04-19 07:31:00,43.6,42.3,29.62,WNW,292,2.0,13.0,95,0.00,,,0.78,Wunderground v.1.15,2013-04-19 11:31:00,
2013-04-19 07:36:00,43.4,42.1,29.63,West,277,9.0,14.0,95,0.00,,,0.78,Wunderground v.1.15,2013-04-19 11:36:00,
2013-04-19 07:41:00,43.3,42.0,29.64,West,275,2.0,7.0,95,0.00,,,0.78,Wunderground v.1.15,2013-04-19 11:41:00,
2013-04-19 07:46:00,43.2,41.9,29.64,West,263,6.0,18.0,95,0.00,,,0.78,Wunderground v.1.15,2013-04-19 11:46:00,
2013-04-19 07:51:00,43.1,41.8,29.64,SW,220,4.0,10.0,95,0.00,,,0.78,Wunderground v.1.15,2013-04-19 11:51:00,
2013-04-19 07:56:00,43.0,41.4,29.65,SW,221,6.0,11.0,94,0.00,,,0.78,Wunderground v.1.15,2013-04-19 11:56:00,
2013-04-19 08:02:00,42.9,41.3,29.65,SW,223,2.0,10.0,94,0.00,,,0.78,Wunderground v.1.15,2013-04-19 12:02:00,
2013-04-19 08:07:00,42.8,41.2,29.65,WSW,252,4.0,12.0,94,0.00,,,0.78,Wunderground v.1.15,2013-04-19 12:07:00,
2013-04-19 08:12:00,42.5,40.9,29.65,West,277,10.0,12.0,94,0.00,,,0.78,Wunderground v.1.15,2013-04-19 12:12:00,
2013-04-19 08:17:00,42.4,40.5,29.65,NW,311,6.0,16.0,93,0.00,,,0.78,Wunderground v.1.15,2013-04-19 12:17:00,
2013-04-19 08:22:00,42.4,40.5,29.65,West,267,6.0,9.0,93,0.00,,,0.78,Wunderground v.1.15,2013-04-19 12:22:00,
2013-04-19 08:28:00,42.3,40.4,29.65,WSW,244,2.0,11.0,93,0.00,,,0.78,Wunderground v.1.15,2013-04-19 12:28:00,
2013-04-19 08:33:00,42.1,40.2,29.66,WSW,248,3.0,11.0,93,0.00,,,0.78,Wunderground v.1.15,2013-04-19 12:33:00,
2013-04-19 08:38:00,42.1,40.5,29.67,WNW,282,6.0,11.0,94,0.00,,,0.78,Wunderground v.1.15,2013-04-19 12:38:00,
2013-04-19 08:43:00,41.8,39.9,29.67,WNW,282,6.0,12.0,93,0.00,,,0.78,Wunderground v.1.15,2013-04-19 12:43:00,
2013-04-19 08:49:00,41.3,39.4,29.67,WSW,249,7.0,13.0,93,0.00,,,0.78,Wunderground v.1.15,2013-04-19 12:49:00,
2013-04-19 08:54:00,41.1,39.2,29.68,NW,306,2.0,9.0,93,0.00,,,0.78,Wunderground v.1.15,2013-04-19 12:54:00,
2013-04-19 09:00:00,40.9,39.3,29.68,West,274,11.0,11.0,94,0.00,,,0.78,Wunderground v.1.15,2013-04-19 13:00:00,
2013-04-19 09:05:00,40.5,38.6,29.68,WSW,254,10.0,14.0,93,0.00,,,0.78,Wunderground v.1.15,2013-04-19 13:05:00,
2013-04-19 09:10:00,40.2,38.3,29.69,West,279,6.0,8.0,93,0.00,,,0.78,Wunderground v.1.15,2013-04-19 13:10:00,
2013-04-19 09:15:00,40.1,38.2,29.69,West,259,3.0,14.0,93,0.00,,,0.78,Wunderground v.1.15,2013-04-19 13:15:00,
2013-04-19 09:20:00,40.0,38.1,29.69,West,260,2.0,11.0,93,0.00,,,0.78,Wunderground v.1.15,2013-04-19 13:20:00,
2013-04-19 09:26:00,40.1,38.2,29.70,West,273,4.0,11.0,93,0.00,,,0.78,Wunderground v.1.15,2013-04-19 13:26:00,
2013-04-19 09:30:00,40.2,38.3,29.70,WSW,256,7.0,10.0,93,0.00,,,0.79,Wunderground v.1.15,2013-04-19 13:30:00,
2013-04-19 09:35:00,40.2,38.1,29.70,WSW,237,3.0,13.0,92,0.00,,,0.79,Wunderground v.1.15,2013-04-19 13:35:00,
2013-04-19 09:40:00,40.1,37.7,29.71,SW,219,3.0,7.0,91,0.00,,,0.79,Wunderground v.1.15,2013-04-19 13:40:00,
2013-04-19 09:45:00,40.1,37.7,29.72,West,281,9.0,12.0,91,0.00,,,0.79,Wunderground v.1.15,2013-04-19 13:45:00,
2013-04-19 09:50:00,39.8,37.1,29.72,West,278,10.0,15.0,90,0.00,,,0.79,Wunderground v.1.15,2013-04-19 13:50:00,
2013-04-19 09:56:00,39.6,36.3,29.73,WSW,245,13.0,20.0,88,0.00,,,0.79,Wunderground v.1.15,2013-04-19 13:56:00,
2013-04-19 10:01:00,39.6,36.3,29.73,West,281,9.0,9.0,88,0.00,,,0.79,Wunderground v.1.15,2013-04-19 14:01:00,
2013-04-19 10:06:00,39.4,35.9,29.73,West,263,15.0,24.0,87,0.00,,,0.79,Wunderground v.1.15,2013-04-19 14:06:00,
2013-04-19 10:11:00,39.2,35.4,29.74,WSW,243,4.0,13.0,86,0.00,,,0.79,Wunderground v.1.15,2013-04-19 14:11:00,
2013-04-19 10:16:00,39.3,35.8,29.75,West,266,17.0,17.0,87,0.00,,,0.79,Wunderground v.1.15,2013-04-19 14:16:00,
2013-04-19 10:21:00,39.3,35.5,29.75,West,279,3.0,9.0,86,0.00,,,0.79,Wunderground v.1.15,2013-04-19 14:21:00,
2013-04-19 10:26:00,39.3,35.5,29.75,SW,215,1.0,10.0,86,0.00,,,0.79,Wunderground v.1.15,2013-04-19 14:26:00,
2013-04-19 10:31:00,39.5,35.4,29.75,WSW,257,4.0,12.0,85,0.00,,,0.79,Wunderground v.1.15,2013-04-19 14:31:00,
2013-04-19 10:36:00,39.8,35.7,29.76,WSW,242,2.0,12.0,85,0.00,,,0.79,Wunderground v.1.15,2013-04-19 14:36:00,
2013-04-19 10:41:00,39.9,35.5,29.76,SW,236,9.0,13.0,84,0.00,,,0.79,Wunderground v.1.15,2013-04-19 14:41:00,
2013-04-19 10:47:00,39.9,35.2,29.75,WSW,255,12.0,13.0,83,0.00,,,0.79,Wunderground v.1.15,2013-04-19 14:47:00,
2013-04-19 10:52:00,40.0,35.3,29.75,West,267,6.0,11.0,83,0.00,,,0.79,Wunderground v.1.15,2013-04-19 14:52:00,
2013-04-19 10:57:00,40.2,35.4,29.75,WSW,255,3.0,12.0,83,0.00,,,0.79,Wunderground v.1.15,2013-04-19 14:57:00,
2013-04-19 11:02:00,40.1,35.4,29.76,WSW,243,4.0,12.0,83,0.00,,,0.79,Wunderground v.1.15,2013-04-19 15:02:00,
2013-04-19 11:08:00,40.4,36.2,29.76,SSW,208,3.0,12.0,85,0.00,,,0.79,Wunderground v.1.15,2013-04-19 15:08:00,
2013-04-19 11:13:00,40.7,36.5,29.76,WSW,244,4.0,10.0,85,0.00,,,0.79,Wunderground v.1.15,2013-04-19 15:13:00,
2013-04-19 11:18:00,41.0,38.0,29.76,WNW,290,7.0,12.0,89,0.00,,,0.79,Wunderground v.1.15,2013-04-19 15:18:00,
2013-04-19 11:23:00,41.2,36.7,29.76,South,190,3.0,10.0,84,0.00,,,0.79,Wunderground v.1.15,2013-04-19 15:23:00,
2013-04-19 11:28:00,41.2,36.7,29.76,SW,234,5.0,13.0,84,0.00,,,0.79,Wunderground v.1.15,2013-04-19 15:28:00,
2013-04-19 11:33:00,41.0,36.5,29.76,WNW,282,3.0,9.0,84,0.00,,,0.79,Wunderground v.1.15,2013-04-19 15:33:00,
2013-04-19 11:38:00,41.0,36.8,29.77,West,278,6.0,10.0,85,0.00,,,0.79,Wunderground v.1.15,2013-04-19 15:38:00,
2013-04-19 11:43:00,40.7,35.9,29.77,WSW,250,13.0,19.0,83,0.00,,,0.79,Wunderground v.1.15,2013-04-19 15:43:00,
2013-04-19 11:49:00,40.6,35.8,29.78,SW,215,2.0,19.0,83,0.00,,,0.79,Wunderground v.1.15,2013-04-19 15:49:00,
2013-04-19 11:54:00,40.6,35.8,29.78,WNW,284,9.0,13.0,83,0.00,,,0.79,Wunderground v.1.15,2013-04-19 15:54:00,
2013-04-19 11:59:00,40.7,35.9,29.78,SW,224,7.0,15.0,83,0.00,,,0.79,Wunderground v.1.15,2013-04-19 15:59:00,
2013-04-19 12:04:00,40.7,35.3,29.78,WSW,250,7.0,17.0,81,0.00,,,0.79,Wunderground v.1.15,2013-04-19 16:04:00,
2013-04-19 12:09:00,40.6,34.6,29.78,West,263,14.0,18.0,79,0.00,,,0.79,Wunderground v.1.15,2013-04-19 16:09:00,
2013-04-19 12:14:00,41.1,34.8,29.77,SW,215,5.0,18.0,78,0.00,,,0.79,Wunderground v.1.15,2013-04-19 16:14:00,
2013-04-19 12:19:00,42.1,36.1,29.77,SW,225,8.0,18.0,79,0.00,,,0.79,Wunderground v.1.15,2013-04-19 16:19:00,
2013-04-19 12:24:00,42.2,34.8,29.77,West,263,4.0,19.0,75,0.00,,,0.79,Wunderground v.1.15,2013-04-19 16:24:00,
2013-04-19 12:29:00,42.1,34.4,29.77,West,281,13.0,19.0,74,0.00,,,0.79,Wunderground v.1.15,2013-04-19 16:29:00,
2013-04-19 12:34:00,42.0,34.6,29.77,West,260,2.0,12.0,75,0.00,,,0.79,Wunderground v.1.15,2013-04-19 16:34:00,
2013-04-19 12:39:00,42.3,34.6,29.78,West,269,6.0,12.0,74,0.00,,,0.79,Wunderground v.1.15,2013-04-19 16:39:00,
2013-04-19 12:44:00,42.3,34.3,29.78,WSW,252,3.0,14.0,73,0.00,,,0.79,Wunderground v.1.15,2013-04-19 16:44:00,
2013-04-19 12:49:00,42.1,34.4,29.78,West,264,3.0,14.0,74,0.00,,,0.79,Wunderground v.1.15,2013-04-19 16:49:00,
2013-04-19 12:54:00,41.8,34.1,29.78,West,281,13.0,19.0,74,0.00,,,0.79,Wunderground v.1.15,2013-04-19 16:54:00,
2013-04-19 12:59:00,41.7,33.7,29.78,WNW,292,12.0,19.0,73,0.00,,,0.79,Wunderground v.1.15,2013-04-19 16:59:00,
2013-04-19 13:04:00,41.6,33.9,29.78,SW,234,7.0,15.0,74,0.00,,,0.79,Wunderground v.1.15,2013-04-19 17:04:00,
2013-04-19 13:09:00,41.6,33.9,29.78,West,277,7.0,15.0,74,0.00,,,0.79,Wunderground v.1.15,2013-04-19 17:09:00,
2013-04-19 13:14:00,41.8,34.5,29.78,SW,234,3.0,9.0,75,0.00,,,0.79,Wunderground v.1.15,2013-04-19 17:14:00,
2013-04-19 13:19:00,42.2,34.8,29.78,SSW,192,3.0,13.0,75,0.00,,,0.79,Wunderground v.1.15,2013-04-19 17:19:00,
2013-04-19 13:24:00,42.6,35.6,29.79,West,273,4.0,13.0,76,0.00,,,0.79,Wunderground v.1.15,2013-04-19 17:24:00,
2013-04-19 13:30:00,43.1,35.0,29.79,WSW,247,9.0,9.0,73,0.00,,,0.79,Wunderground v.1.15,2013-04-19 17:30:00,
2013-04-19 13:35:00,43.3,35.2,29.79,NW,306,9.0,20.0,73,0.00,,,0.79,Wunderground v.1.15,2013-04-19 17:35:00,
2013-04-19 13:40:00,43.0,34.9,29.80,WSW,239,5.0,8.0,73,0.00,,,0.79,Wunderground v.1.15,2013-04-19 17:40:00,
2013-04-19 13:45:00,42.8,34.7,29.80,West,275,8.0,20.0,73,0.00,,,0.79,Wunderground v.1.15,2013-04-19 17:45:00,
2013-04-19 13:50:00,42.7,34.6,29.81,WSW,246,7.0,7.0,73,0.00,,,0.79,Wunderground v.1.15,2013-04-19 17:50:00,
2013-04-19 13:55:00,42.9,35.5,29.81,West,261,12.0,17.0,75,0.00,,,0.79,Wunderground v.1.15,2013-04-19 17:55:00,
2013-04-19 14:00:00,42.7,35.7,29.81,West,269,17.0,20.0,76,0.00,,,0.79,Wunderground v.1.15,2013-04-19 18:00:00,
2013-04-19 14:05:00,42.5,33.8,29.81,WSW,238,12.0,20.0,71,0.00,,,0.79,Wunderground v.1.15,2013-04-19 18:05:00,
2013-04-19 14:10:00,42.8,34.4,29.81,West,267,4.0,9.0,72,0.00,,,0.79,Wunderground v.1.15,2013-04-19 18:10:00,
2013-04-19 14:15:00,43.6,35.9,29.80,WSW,244,4.0,9.0,74,0.00,,,0.79,Wunderground v.1.15,2013-04-19 18:15:00,
2013-04-19 14:20:00,44.4,35.9,29.80,West,278,6.0,8.0,72,0.00,,,0.79,Wunderground v.1.15,2013-04-19 18:20:00,
2013-04-19 14:25:00,44.6,35.4,29.81,West,271,6.0,17.0,70,0.00,,,0.79,Wunderground v.1.15,2013-04-19 18:25:00,
2013-04-19 14:30:00,44.3,35.5,29.81,West,270,9.0,12.0,71,0.00,,,0.79,Wunderground v.1.15,2013-04-19 18:30:00,
2013-04-19 14:35:00,44.3,35.1,29.81,WSW,257,17.0,17.0,70,0.00,,,0.79,Wunderground v.1.15,2013-04-19 18:35:00,
2013-04-19 14:40:00,44.2,35.0,29.81,West,260,10.0,14.0,70,0.00,,,0.79,Wunderground v.1.15,2013-04-19 18:40:00,
2013-04-19 14:45:00,44.5,35.0,29.81,South,189,9.0,15.0,69,0.00,,,0.79,Wunderground v.1.15,2013-04-19 18:45:00,
2013-04-19 14:50:00,44.4,34.9,29.80,SW,218,6.0,16.0,69,0.00,,,0.79,Wunderground v.1.15,2013-04-19 18:50:00,
2013-04-19 14:55:00,44.3,35.1,29.81,SW,223,8.0,21.0,70,0.00,,,0.79,Wunderground v.1.15,2013-04-19 18:55:00,
2013-04-19 15:00:00,44.1,34.9,29.82,SW,236,9.0,12.0,70,0.00,,,0.79,Wunderground v.1.15,2013-04-19 19:00:00,
2013-04-19 15:05:00,44.2,35.4,29.82,SW,236,7.0,13.0,71,0.00,,,0.79,Wunderground v.1.15,2013-04-19 19:05:00,
2013-04-19 15:10:00,44.6,35.4,29.82,WSW,238,15.0,15.0,70,0.00,,,0.79,Wunderground v.1.15,2013-04-19 19:10:00,
2013-04-19 15:15:00,44.5,35.0,29.82,SW,215,5.0,18.0,69,0.00,,,0.79,Wunderground v.1.15,2013-04-19 19:15:00,
2013-04-19 15:20:00,44.3,35.1,29.82,West,259,7.0,8.0,70,0.00,,,0.79,Wunderground v.1.15,2013-04-19 19:20:00,
2013-04-19 15:25:00,44.8,36.0,29.82,SW,225,7.0,12.0,71,0.00,,,0.79,Wunderground v.1.15,2013-04-19 19:25:00,
2013-04-19 15:31:00,44.6,35.4,29.82,SW,229,9.0,16.0,70,0.00,,,0.79,Wunderground v.1.15,2013-04-19 19:31:00,
2013-04-19 15:36:00,44.4,35.6,29.82,West,263,9.0,16.0,71,0.00,,,0.79,Wunderground v.1.15,2013-04-19 19:36:00,
2013-04-19 15:41:00,44.2,35.0,29.82,SW,224,5.0,13.0,70,0.00,,,0.79,Wunderground v.1.15,2013-04-19 19:41:00,
2013-04-19 15:46:00,44.1,34.9,29.82,SW,221,3.0,13.0,70,0.00,,,0.79,Wunderground v.1.15,2013-04-19 19:46:00,
2013-04-19 15:52:00,43.8,34.6,29.82,SW,236,7.0,13.0,70,0.00,,,0.79,Wunderground v.1.15,2013-04-19 19:52:00,
2013-04-19 15:57:00,43.6,34.8,29.82,SW,215,5.0,13.0,71,0.00,,,0.79,Wunderground v.1.15,2013-04-19 19:57:00,
2013-04-19 16:02:00,43.3,34.2,29.82,WNW,285,6.0,15.0,70,0.00,,,0.79,Wunderground v.1.15,2013-04-19 20:02:00,
2013-04-19 16:07:00,43.1,33.6,29.83,WSW,244,7.0,15.0,69,0.00,,,0.79,Wunderground v.1.15,2013-04-19 20:07:00,
2013-04-19 16:11:00,42.9,33.8,29.83,WSW,245,11.0,13.0,70,0.00,,,0.79,Wunderground v.1.15,2013-04-19 20:11:00,
2013-04-19 16:16:00,42.8,33.3,29.83,SW,234,6.0,17.0,69,0.00,,,0.79,Wunderground v.1.15,2013-04-19 20:16:00,
2013-04-19 16:21:00,42.6,33.5,29.83,West,269,13.0,15.0,70,0.00,,,0.79,Wunderground v.1.15,2013-04-19 20:21:00,
2013-04-19 16:26:00,42.7,33.9,29.83,WSW,254,11.0,21.0,71,0.00,,,0.79,Wunderground v.1.15,2013-04-19 20:26:00,
2013-04-19 16:32:00,43.0,34.2,29.83,SW,225,2.0,8.0,71,0.00,,,0.79,Wunderground v.1.15,2013-04-19 20:32:00,
2013-04-19 16:37:00,44.3,35.1,29.83,West,275,8.0,12.0,70,0.00,,,0.79,Wunderground v.1.15,2013-04-19 20:37:00,
2013-04-19 16:42:00,44.6,34.7,29.83,WNW,282,6.0,6.0,68,0.00,,,0.79,Wunderground v.1.15,2013-04-19 20:42:00,
2013-04-19 16:47:00,44.1,34.6,29.83,SW,234,4.0,12.0,69,0.00,,,0.79,Wunderground v.1.15,2013-04-19 20:47:00,
2013-04-19 16:52:00,43.6,33.7,29.84,WNW,286,8.0,13.0,68,0.00,,,0.79,Wunderground v.1.15,2013-04-19 20:52:00,
2013-04-19 17:23:00,43.0,32.8,29.86,SW,227,3.0,5.0,67,0.00,,,0.79,Wunderground v.1.15,2013-04-19 21:23:00,
2013-04-19 17:29:00,43.0,32.8,29.87,NNW,342,6.0,11.0,67,0.00,,,0.79,Wunderground v.1.15,2013-04-19 21:29:00,
2013-04-19 17:35:00,43.0,32.4,29.87,NNW,333,3.0,10.0,66,0.00,,,0.79,Wunderground v.1.15,2013-04-19 21:35:00,
2013-04-19 17:40:00,42.8,32.2,29.88,West,263,3.0,18.0,66,0.00,,,0.79,Wunderground v.1.15,2013-04-19 21:40:00,
2013-04-19 17:45:00,42.6,32.0,29.88,West,281,3.0,15.0,66,0.00,,,0.79,Wunderground v.1.15,2013-04-19 21:45:00,
2013-04-19 17:50:00,42.5,31.9,29.88,WNW,284,10.0,16.0,66,0.00,,,0.79,Wunderground v.1.15,2013-04-19 21:50:00,
2013-04-19 17:55:00,42.5,32.3,29.88,WSW,251,4.0,11.0,67,0.00,,,0.79,Wunderground v.1.15,2013-04-19 21:55:00,
2013-04-19 18:01:00,42.4,32.2,29.88,SW,234,4.0,6.0,67,0.00,,,0.79,Wunderground v.1.15,2013-04-19 22:01:00,
2013-04-19 18:06:00,42.4,32.6,29.89,West,265,11.0,12.0,68,0.00,,,0.79,Wunderground v.1.15,2013-04-19 22:06:00,
2013-04-19 18:11:00,42.3,32.1,29.89,WSW,250,10.0,10.0,67,0.00,,,0.79,Wunderground v.1.15,2013-04-19 22:11:00,
2013-04-19 18:16:00,42.2,32.4,29.90,West,263,2.0,12.0,68,0.00,,,0.79,Wunderground v.1.15,2013-04-19 22:16:00,
2013-04-19 18:21:00,42.1,32.3,29.90,West,266,8.0,16.0,68,0.00,,,0.79,Wunderground v.1.15,2013-04-19 22:21:00,
2013-04-19 18:27:00,42.0,32.2,29.90,West,276,9.0,16.0,68,0.00,,,0.79,Wunderground v.1.15,2013-04-19 22:27:00,
2013-04-19 18:32:00,41.9,32.5,29.91,SW,229,3.0,11.0,69,0.00,,,0.79,Wunderground v.1.15,2013-04-19 22:32:00,
2013-04-19 18:37:00,41.9,32.8,29.91,West,263,7.0,14.0,70,0.00,,,0.79,Wunderground v.1.15,2013-04-19 22:37:00,
2013-04-19 18:42:00,41.8,32.7,29.91,West,272,2.0,6.0,70,0.00,,,0.79,Wunderground v.1.15,2013-04-19 22:42:00,
2013-04-19 18:47:00,41.8,32.7,29.91,WSW,239,5.0,14.0,70,0.00,,,0.79,Wunderground v.1.15,2013-04-19 22:47:00,
2013-04-19 18:52:00,41.6,32.9,29.91,WSW,253,4.0,8.0,71,0.00,,,0.79,Wunderground v.1.15,2013-04-19 22:52:00,
2013-04-19 18:57:00,41.6,33.2,29.92,SW,225,2.0,10.0,72,0.00,,,0.79,Wunderground v.1.15,2013-04-19 22:57:00,
2013-04-19 19:02:00,41.5,32.8,29.92,WSW,246,4.0,9.0,71,0.00,,,0.79,Wunderground v.1.15,2013-04-19 23:02:00,
2013-04-19 19:07:00,41.4,33.0,29.92,SW,228,4.0,16.0,72,0.00,,,0.79,Wunderground v.1.15,2013-04-19 23:07:00,
2013-04-19 19:12:00,41.2,33.2,29.92,SW,219,4.0,10.0,73,0.00,,,0.79,Wunderground v.1.15,2013-04-19 23:12:00,
2013-04-19 19:17:00,41.0,33.3,29.92,West,279,6.0,12.0,74,0.00,,,0.79,Wunderground v.1.15,2013-04-19 23:17:00,
2013-04-19 19:23:00,40.9,33.6,29.92,West,261,4.0,13.0,75,0.00,,,0.79,Wunderground v.1.15,2013-04-19 23:23:00,
2013-04-19 19:28:00,40.8,33.8,29.92,WSW,252,2.0,13.0,76,0.00,,,0.79,Wunderground v.1.15,2013-04-19 23:28:00,
2013-04-19 19:33:00,40.7,33.7,29.93,West,269,7.0,9.0,76,0.00,,,0.79,Wunderground v.1.15,2013-04-19 23:33:00,
2013-04-19 19:38:00,40.5,33.9,29.94,SW,226,4.0,12.0,77,0.00,,,0.79,Wunderground v.1.15,2013-04-19 23:38:00,
2013-04-19 19:43:00,40.1,34.1,29.94,WSW,245,4.0,10.0,79,0.00,,,0.79,Wunderground v.1.15,2013-04-19 23:43:00,
2013-04-19 19:49:00,39.4,33.7,29.94,WSW,257,8.0,16.0,80,0.00,,,0.79,Wunderground v.1.15,2013-04-19 23:49:00,
2013-04-19 19:54:00,39.0,33.7,29.94,SW,223,3.0,12.0,81,0.00,,,0.79,Wunderground v.1.15,2013-04-19 23:54:00,
2013-04-19 19:59:00,38.8,33.8,29.94,West,261,0.0,13.0,82,0.00,,,0.79,Wunderground v.1.15,2013-04-19 23:59:00,
2013-04-19 20:04:00,38.8,34.1,29.95,West,278,2.0,7.0,83,0.00,,,0.79,Wunderground v.1.15,2013-04-20 00:04:00,
2013-04-19 20:09:00,38.8,34.1,29.95,WSW,242,3.0,8.0,83,0.00,,,0.79,Wunderground v.1.15,2013-04-20 00:09:00,
2013-04-19 20:14:00,38.8,34.1,29.95,West,271,4.0,10.0,83,0.00,,,0.79,Wunderground v.1.15,2013-04-20 00:14:00,
2013-04-19 20:20:00,38.8,34.1,29.95,West,263,2.0,3.0,83,0.00,,,0.79,Wunderground v.1.15,2013-04-20 00:20:00,
2013-04-19 20:25:00,38.8,34.1,29.95,SW,228,4.0,9.0,83,0.00,,,0.79,Wunderground v.1.15,2013-04-20 00:25:00,
2013-04-19 20:30:00,38.8,34.1,29.95,West,261,2.0,3.0,83,0.00,,,0.79,Wunderground v.1.15,2013-04-20 00:30:00,
2013-04-19 20:35:00,38.8,34.1,29.95,WSW,253,4.0,8.0,83,0.00,,,0.79,Wunderground v.1.15,2013-04-20 00:35:00,
2013-04-19 20:40:00,38.8,34.1,29.95,WSW,244,0.0,4.0,83,0.00,,,0.79,Wunderground v.1.15,2013-04-20 00:40:00,
2013-04-19 20:45:00,38.8,34.1,29.96,SSW,211,4.0,5.0,83,0.00,,,0.79,Wunderground v.1.15,2013-04-20 00:45:00,
2013-04-19 20:50:00,38.8,33.8,29.96,WSW,258,1.0,5.0,82,0.00,,,0.79,Wunderground v.1.15,2013-04-20 00:50:00,
2013-04-19 20:56:00,38.8,33.5,29.96,West,263,0.0,9.0,81,0.00,,,0.79,Wunderground v.1.15,2013-04-20 00:56:00,
2013-04-19 21:01:00,38.8,33.2,29.96,SSW,202,1.0,2.0,80,0.00,,,0.79,Wunderground v.1.15,2013-04-20 01:01:00,
2013-04-19 21:06:00,38.9,33.3,29.96,SW,234,0.0,4.0,80,0.00,,,0.79,Wunderground v.1.15,2013-04-20 01:06:00,
2013-04-19 21:11:00,38.9,33.3,29.97,SW,234,2.0,3.0,80,0.00,,,0.79,Wunderground v.1.15,2013-04-20 01:11:00,
2013-04-19 21:16:00,39.0,33.0,29.97,SW,235,1.0,3.0,79,0.00,,,0.79,Wunderground v.1.15,2013-04-20 01:16:00,
2013-04-19 21:21:00,39.1,33.5,29.97,SW,235,1.0,1.0,80,0.00,,,0.79,Wunderground v.1.15,2013-04-20 01:21:00,
2013-04-19 21:26:00,39.2,33.2,29.97,WSW,238,0.0,3.0,79,0.00,,,0.79,Wunderground v.1.15,2013-04-20 01:26:00,
2013-04-19 21:31:00,39.2,33.2,29.98,SW,232,2.0,2.0,79,0.00,,,0.79,Wunderground v.1.15,2013-04-20 01:31:00,
2013-04-19 21:36:00,39.2,33.2,29.97,SW,228,1.0,2.0,79,0.00,,,0.79,Wunderground v.1.15,2013-04-20 01:36:00,
2013-04-19 21:42:00,39.0,33.0,29.98,WSW,248,1.0,3.0,79,0.00,,,0.79,Wunderground v.1.15,2013-04-20 01:42:00,
2013-04-19 21:47:00,38.9,32.9,29.98,WSW,248,0.0,3.0,79,0.00,,,0.79,Wunderground v.1.15,2013-04-20 01:47:00,
2013-04-19 21:52:00,38.7,32.7,29.98,SSW,211,5.0,5.0,79,0.00,,,0.79,Wunderground v.1.15,2013-04-20 01:52:00,
2013-04-19 21:57:00,38.7,32.4,29.99,West,266,1.0,10.0,78,0.00,,,0.79,Wunderground v.1.15,2013-04-20 01:57:00,
2013-04-19 22:02:00,38.7,32.4,29.99,SSW,213,3.0,7.0,78,0.00,,,0.79,Wunderground v.1.15,2013-04-20 02:02:00,
2013-04-19 22:07:00,38.8,32.5,29.99,SW,214,0.0,7.0,78,0.00,,,0.79,Wunderground v.1.15,2013-04-20 02:07:00,
2013-04-19 22:12:00,38.8,32.5,29.99,SW,236,1.0,5.0,78,0.00,,,0.79,Wunderground v.1.15,2013-04-20 02:12:00,
2013-04-19 22:18:00,38.7,32.4,30.00,WSW,241,1.0,5.0,78,0.00,,,0.79,Wunderground v.1.15,2013-04-20 02:18:00,
2013-04-19 22:23:00,38.6,32.6,30.00,SSW,202,4.0,5.0,79,0.00,,,0.79,Wunderground v.1.15,2013-04-20 02:23:00,
2013-04-19 22:28:00,38.5,32.6,30.00,West,263,1.0,7.0,79,0.00,,,0.79,Wunderground v.1.15,2013-04-20 02:28:00,
2013-04-19 22:33:00,38.3,32.4,30.00,WSW,252,3.0,4.0,79,0.00,,,0.79,Wunderground v.1.15,2013-04-20 02:33:00,
2013-04-19 22:38:00,38.3,32.4,30.00,SSW,207,0.0,5.0,79,0.00,,,0.79,Wunderground v.1.15,2013-04-20 02:38:00,
2013-04-19 22:43:00,38.1,32.5,30.00,West,267,3.0,4.0,80,0.00,,,0.79,Wunderground v.1.15,2013-04-20 02:43:00,
2013-04-19 22:48:00,38.0,32.4,30.00,SSW,197,1.0,6.0,80,0.00,,,0.79,Wunderground v.1.15,2013-04-20 02:48:00,
2013-04-19 22:53:00,37.9,32.3,30.00,SW,217,1.0,5.0,80,0.00,,,0.79,Wunderground v.1.15,2013-04-20 02:53:00,
2013-04-19 22:58:00,37.9,32.3,30.00,SSW,209,3.0,5.0,80,0.00,,,0.79,Wunderground v.1.15,2013-04-20 02:58:00,
2013-04-19 23:04:00,37.9,32.3,30.00,SSW,202,3.0,6.0,80,0.00,,,0.79,Wunderground v.1.15,2013-04-20 03:04:00,
2013-04-19 23:09:00,38.0,32.4,30.01,WSW,238,0.0,7.0,80,0.00,,,0.79,Wunderground v.1.15,2013-04-20 03:09:00,
2013-04-19 23:14:00,38.0,32.4,30.01,SW,218,5.0,6.0,80,0.00,,,0.79,Wunderground v.1.15,2013-04-20 03:14:00,
2013-04-19 23:19:00,38.0,32.4,30.01,SSW,207,2.0,6.0,80,0.00,,,0.79,Wunderground v.1.15,2013-04-20 03:19:00,
2013-04-19 23:24:00,37.9,32.3,30.01,West,271,0.0,4.0,80,0.00,,,0.79,Wunderground v.1.15,2013-04-20 03:24:00,
2013-04-19 23:29:00,37.8,32.5,30.01,SW,227,2.0,5.0,81,0.00,,,0.79,Wunderground v.1.15,2013-04-20 03:29:00,
2013-04-19 23:34:00,37.8,32.5,30.01,SW,236,1.0,9.0,81,0.00,,,0.79,Wunderground v.1.15,2013-04-20 03:34:00,
2013-04-19 23:39:00,37.8,32.5,30.02,SW,230,0.0,9.0,81,0.00,,,0.79,Wunderground v.1.15,2013-04-20 03:39:00,
2013-04-19 23:44:00,37.7,32.4,30.02,SW,230,0.0,5.0,81,0.00,,,0.79,Wunderground v.1.15,2013-04-20 03:44:00,
2013-04-19 23:49:00,37.7,32.7,30.02,SSW,209,3.0,5.0,82,0.00,,,0.79,Wunderground v.1.15,2013-04-20 03:49:00,
2013-04-19 23:54:00,37.7,32.7,30.02,SW,236,3.0,4.0,82,0.00,,,0.79,Wunderground v.1.15,2013-04-20 03:54:00,
2013-04-19 23:59:00,37.7,32.7,30.02,SSW,212,2.0,8.0,82,0.00,,,0.79,Wunderground v.1.15,2013-04-20 03:59:00,